sensor_id;sensor_type;location;lat;lon;timestamp;temperature;humidity
25616;DHT22;13482;48.234;13.006;2023-02-02T00:01:49;8.00;66.90
25616;DHT22;13482;48.234;13.006;2023-02-02T00:06:51;8.00;67.00
25616;DHT22;13482;48.234;13.006;2023-02-02T00:09:25;8.00;67.00
25616;DHT22;13482;48.234;13.006;2023-02-02T00:11:55;7.90;67.10
25616;DHT22;13482;48.234;13.006;2023-02-02T00:14:23;7.90;67.20
25616;DHT22;13482;48.234;13.006;2023-02-02T00:16:55;7.90;67.10
25616;DHT22;13482;48.234;13.006;2023-02-02T00:19:25;7.90;67.40
25616;DHT22;13482;48.234;13.006;2023-02-02T00:21:57;7.90;67.20
25616;DHT22;13482;48.234;13.006;2023-02-02T00:24:25;7.90;67.40
25616;DHT22;13482;48.234;13.006;2023-02-02T00:26:54;7.90;67.60
25616;DHT22;13482;48.234;13.006;2023-02-02T00:29:28;7.90;67.40
25616;DHT22;13482;48.234;13.006;2023-02-02T00:31:56;7.90;67.40
25616;DHT22;13482;48.234;13.006;2023-02-02T00:34:24;7.90;67.60
25616;DHT22;13482;48.234;13.006;2023-02-02T00:36:52;7.90;67.60
25616;DHT22;13482;48.234;13.006;2023-02-02T00:39:22;7.90;67.70
25616;DHT22;13482;48.234;13.006;2023-02-02T00:41:53;7.80;67.80
25616;DHT22;13482;48.234;13.006;2023-02-02T00:44:21;7.80;67.80
25616;DHT22;13482;48.234;13.006;2023-02-02T00:47:07;7.80;67.70
25616;DHT22;13482;48.234;13.006;2023-02-02T00:49:35;7.80;67.80
25616;DHT22;13482;48.234;13.006;2023-02-02T00:52:02;7.80;67.80
25616;DHT22;13482;48.234;13.006;2023-02-02T00:54:31;7.80;67.80
25616;DHT22;13482;48.234;13.006;2023-02-02T00:56:58;7.80;67.80
25616;DHT22;13482;48.234;13.006;2023-02-02T00:59:25;7.80;67.90
25616;DHT22;13482;48.234;13.006;2023-02-02T01:01:52;7.70;68.00
25616;DHT22;13482;48.234;13.006;2023-02-02T01:04:19;7.70;68.10
25616;DHT22;13482;48.234;13.006;2023-02-02T01:06:47;7.70;68.00
25616;DHT22;13482;48.234;13.006;2023-02-02T01:09:14;7.70;68.10
25616;DHT22;13482;48.234;13.006;2023-02-02T01:11:41;7.70;67.80
25616;DHT22;13482;48.234;13.006;2023-02-02T01:14:09;7.70;67.80
25616;DHT22;13482;48.234;13.006;2023-02-02T01:16:37;7.80;67.70
25616;DHT22;13482;48.234;13.006;2023-02-02T01:19:04;7.70;67.80
25616;DHT22;13482;48.234;13.006;2023-02-02T01:21:31;7.70;67.80
25616;DHT22;13482;48.234;13.006;2023-02-02T01:23:58;7.70;67.70
25616;DHT22;13482;48.234;13.006;2023-02-02T01:26:26;7.80;67.70
25616;DHT22;13482;48.234;13.006;2023-02-02T01:28:53;7.80;67.70
25616;DHT22;13482;48.234;13.006;2023-02-02T01:31:20;7.80;67.60
25616;DHT22;13482;48.234;13.006;2023-02-02T01:33:48;7.80;67.60
25616;DHT22;13482;48.234;13.006;2023-02-02T01:36:21;7.80;67.70
25616;DHT22;13482;48.234;13.006;2023-02-02T01:38:49;7.80;67.50
25616;DHT22;13482;48.234;13.006;2023-02-02T01:41:20;7.80;67.40
25616;DHT22;13482;48.234;13.006;2023-02-02T01:43:52;7.90;67.50
25616;DHT22;13482;48.234;13.006;2023-02-02T01:46:25;7.90;67.50
25616;DHT22;13482;48.234;13.006;2023-02-02T01:48:57;7.90;67.80
25616;DHT22;13482;48.234;13.006;2023-02-02T01:51:35;7.90;67.20
25616;DHT22;13482;48.234;13.006;2023-02-02T01:54:18;8.00;67.20
25616;DHT22;13482;48.234;13.006;2023-02-02T01:56:55;7.90;67.20
25616;DHT22;13482;48.234;13.006;2023-02-02T01:59:26;8.00;67.20
25616;DHT22;13482;48.234;13.006;2023-02-02T02:01:55;8.00;67.30
25616;DHT22;13482;48.234;13.006;2023-02-02T02:04:23;7.90;67.40
25616;DHT22;13482;48.234;13.006;2023-02-02T02:06:52;8.00;67.30
25616;DHT22;13482;48.234;13.006;2023-02-02T02:09:20;7.90;67.40
25616;DHT22;13482;48.234;13.006;2023-02-02T02:11:47;7.90;67.50
25616;DHT22;13482;48.234;13.006;2023-02-02T02:14:15;8.00;67.50
25616;DHT22;13482;48.234;13.006;2023-02-02T02:32:54;7.80;69.00
25616;DHT22;13482;48.234;13.006;2023-02-02T02:35:32;7.80;69.00
25616;DHT22;13482;48.234;13.006;2023-02-02T02:40:58;7.60;69.80
25616;DHT22;13482;48.234;13.006;2023-02-02T02:43:31;7.50;70.20
25616;DHT22;13482;48.234;13.006;2023-02-02T02:46:01;7.50;70.00
25616;DHT22;13482;48.234;13.006;2023-02-02T02:48:30;7.50;70.00
25616;DHT22;13482;48.234;13.006;2023-02-02T02:51:33;7.40;70.10
25616;DHT22;13482;48.234;13.006;2023-02-02T02:54:36;7.40;70.40
25616;DHT22;13482;48.234;13.006;2023-02-02T02:57:21;7.40;70.00
25616;DHT22;13482;48.234;13.006;2023-02-02T03:03:18;7.40;70.30
25616;DHT22;13482;48.234;13.006;2023-02-02T03:11:07;7.50;70.00
25616;DHT22;13482;48.234;13.006;2023-02-02T03:13:36;7.50;70.00
25616;DHT22;13482;48.234;13.006;2023-02-02T03:16:08;7.50;70.20
25616;DHT22;13482;48.234;13.006;2023-02-02T03:18:37;7.50;70.10
25616;DHT22;13482;48.234;13.006;2023-02-02T03:21:05;7.60;70.20
25616;DHT22;13482;48.234;13.006;2023-02-02T03:23:34;7.60;69.90
25616;DHT22;13482;48.234;13.006;2023-02-02T03:26:01;7.60;69.90
25616;DHT22;13482;48.234;13.006;2023-02-02T03:28:28;7.60;70.20
25616;DHT22;13482;48.234;13.006;2023-02-02T03:30:58;7.60;70.10
25616;DHT22;13482;48.234;13.006;2023-02-02T03:33:27;7.60;69.90
25616;DHT22;13482;48.234;13.006;2023-02-02T03:35:54;7.60;69.90
25616;DHT22;13482;48.234;13.006;2023-02-02T03:38:21;7.60;69.80
25616;DHT22;13482;48.234;13.006;2023-02-02T03:40:50;7.60;70.10
25616;DHT22;13482;48.234;13.006;2023-02-02T03:43:22;7.70;70.20
25616;DHT22;13482;48.234;13.006;2023-02-02T03:45:56;7.70;70.00
25616;DHT22;13482;48.234;13.006;2023-02-02T03:48:25;7.70;71.10
25616;DHT22;13482;48.234;13.006;2023-02-02T03:50:53;7.70;70.30
25616;DHT22;13482;48.234;13.006;2023-02-02T03:53:20;7.70;70.30
25616;DHT22;13482;48.234;13.006;2023-02-02T03:55:48;7.60;70.30
25616;DHT22;13482;48.234;13.006;2023-02-02T03:58:15;7.60;70.50
25616;DHT22;13482;48.234;13.006;2023-02-02T04:00:43;7.60;70.60
25616;DHT22;13482;48.234;13.006;2023-02-02T04:03:10;7.60;71.00
25616;DHT22;13482;48.234;13.006;2023-02-02T04:05:40;7.60;71.10
25616;DHT22;13482;48.234;13.006;2023-02-02T04:08:12;7.50;71.00
25616;DHT22;13482;48.234;13.006;2023-02-02T04:10:42;7.50;71.40
25616;DHT22;13482;48.234;13.006;2023-02-02T04:13:09;7.50;71.50
25616;DHT22;13482;48.234;13.006;2023-02-02T04:15:36;7.40;71.60
25616;DHT22;13482;48.234;13.006;2023-02-02T04:18:03;7.40;71.60
25616;DHT22;13482;48.234;13.006;2023-02-02T04:20:30;7.40;71.50
25616;DHT22;13482;48.234;13.006;2023-02-02T04:22:57;7.40;71.60
25616;DHT22;13482;48.234;13.006;2023-02-02T04:25:25;7.40;71.70
25616;DHT22;13482;48.234;13.006;2023-02-02T04:27:53;7.40;72.00
25616;DHT22;13482;48.234;13.006;2023-02-02T04:30:20;7.40;71.80
25616;DHT22;13482;48.234;13.006;2023-02-02T04:32:50;7.40;71.80
25616;DHT22;13482;48.234;13.006;2023-02-02T04:35:18;7.40;71.50
25616;DHT22;13482;48.234;13.006;2023-02-02T04:37:45;7.40;71.50
25616;DHT22;13482;48.234;13.006;2023-02-02T04:40:19;7.50;71.60
25616;DHT22;13482;48.234;13.006;2023-02-02T04:42:49;7.50;71.60
25616;DHT22;13482;48.234;13.006;2023-02-02T04:45:16;7.50;71.60
25616;DHT22;13482;48.234;13.006;2023-02-02T04:47:46;7.50;71.60
25616;DHT22;13482;48.234;13.006;2023-02-02T04:50:14;7.50;71.50
25616;DHT22;13482;48.234;13.006;2023-02-02T04:52:42;7.50;71.50
25616;DHT22;13482;48.234;13.006;2023-02-02T04:55:12;7.50;71.80
25616;DHT22;13482;48.234;13.006;2023-02-02T04:57:40;7.50;71.80
25616;DHT22;13482;48.234;13.006;2023-02-02T05:00:08;7.50;72.00
25616;DHT22;13482;48.234;13.006;2023-02-02T05:02:38;7.50;72.20
25616;DHT22;13482;48.234;13.006;2023-02-02T05:05:10;7.50;72.10
25616;DHT22;13482;48.234;13.006;2023-02-02T05:07:43;7.50;72.20
25616;DHT22;13482;48.234;13.006;2023-02-02T05:10:14;7.50;72.20
25616;DHT22;13482;48.234;13.006;2023-02-02T05:12:41;7.50;72.10
25616;DHT22;13482;48.234;13.006;2023-02-02T05:15:09;7.50;72.30
25616;DHT22;13482;48.234;13.006;2023-02-02T05:17:36;7.50;72.30
25616;DHT22;13482;48.234;13.006;2023-02-02T05:20:04;7.50;72.80
25616;DHT22;13482;48.234;13.006;2023-02-02T05:22:31;7.40;72.70
25616;DHT22;13482;48.234;13.006;2023-02-02T05:24:58;7.40;73.20
25616;DHT22;13482;48.234;13.006;2023-02-02T05:27:25;7.40;73.30
25616;DHT22;13482;48.234;13.006;2023-02-02T05:29:55;7.40;72.80
25616;DHT22;13482;48.234;13.006;2023-02-02T05:32:26;7.40;71.80
25616;DHT22;13482;48.234;13.006;2023-02-02T05:34:56;7.30;71.20
25616;DHT22;13482;48.234;13.006;2023-02-02T05:37:26;7.20;70.70
25616;DHT22;13482;48.234;13.006;2023-02-02T05:39:54;7.10;70.50
25616;DHT22;13482;48.234;13.006;2023-02-02T05:42:21;7.00;70.30
25616;DHT22;13482;48.234;13.006;2023-02-02T05:44:48;6.90;70.10
25616;DHT22;13482;48.234;13.006;2023-02-02T05:47:20;6.70;70.00
25616;DHT22;13482;48.234;13.006;2023-02-02T05:49:48;6.60;70.00
25616;DHT22;13482;48.234;13.006;2023-02-02T05:52:21;6.50;71.00
25616;DHT22;13482;48.234;13.006;2023-02-02T05:54:57;6.30;71.20
25616;DHT22;13482;48.234;13.006;2023-02-02T05:57:25;6.20;71.30
25616;DHT22;13482;48.234;13.006;2023-02-02T05:59:54;6.00;72.20
25616;DHT22;13482;48.234;13.006;2023-02-02T06:02:21;5.90;72.10
25616;DHT22;13482;48.234;13.006;2023-02-02T06:04:48;5.70;72.30
25616;DHT22;13482;48.234;13.006;2023-02-02T06:07:15;5.70;72.20
25616;DHT22;13482;48.234;13.006;2023-02-02T06:09:42;5.60;72.70
25616;DHT22;13482;48.234;13.006;2023-02-02T06:12:10;5.50;73.10
25616;DHT22;13482;48.234;13.006;2023-02-02T06:14:37;5.40;72.90
25616;DHT22;13482;48.234;13.006;2023-02-02T06:17:04;5.40;72.60
25616;DHT22;13482;48.234;13.006;2023-02-02T06:19:32;5.40;72.70
25616;DHT22;13482;48.234;13.006;2023-02-02T06:21:59;5.40;73.50
25616;DHT22;13482;48.234;13.006;2023-02-02T06:24:27;5.40;73.30
25616;DHT22;13482;48.234;13.006;2023-02-02T06:26:54;5.30;72.90
25616;DHT22;13482;48.234;13.006;2023-02-02T06:29:21;5.30;72.60
25616;DHT22;13482;48.234;13.006;2023-02-02T06:31:48;5.40;72.60
25616;DHT22;13482;48.234;13.006;2023-02-02T06:34:16;5.40;72.60
25616;DHT22;13482;48.234;13.006;2023-02-02T06:36:43;5.40;72.40
25616;DHT22;13482;48.234;13.006;2023-02-02T06:39:10;5.40;72.20
25616;DHT22;13482;48.234;13.006;2023-02-02T06:41:38;5.40;72.30
25616;DHT22;13482;48.234;13.006;2023-02-02T06:44:06;5.50;72.10
25616;DHT22;13482;48.234;13.006;2023-02-02T06:46:33;5.50;72.20
25616;DHT22;13482;48.234;13.006;2023-02-02T06:49:00;5.50;71.90
25616;DHT22;13482;48.234;13.006;2023-02-02T06:51:28;5.50;71.90
25616;DHT22;13482;48.234;13.006;2023-02-02T06:53:55;5.50;72.10
25616;DHT22;13482;48.234;13.006;2023-02-02T06:56:25;5.50;71.80
25616;DHT22;13482;48.234;13.006;2023-02-02T06:58:55;5.50;71.70
25616;DHT22;13482;48.234;13.006;2023-02-02T07:01:25;5.60;71.60
25616;DHT22;13482;48.234;13.006;2023-02-02T07:03:52;5.50;71.60
25616;DHT22;13482;48.234;13.006;2023-02-02T07:06:21;5.60;71.50
25616;DHT22;13482;48.234;13.006;2023-02-02T07:08:51;5.60;71.30
25616;DHT22;13482;48.234;13.006;2023-02-02T07:11:28;5.50;71.30
25616;DHT22;13482;48.234;13.006;2023-02-02T07:14:08;5.50;71.20
25616;DHT22;13482;48.234;13.006;2023-02-02T07:16:35;5.50;71.20
25616;DHT22;13482;48.234;13.006;2023-02-02T07:19:02;5.50;71.10
25616;DHT22;13482;48.234;13.006;2023-02-02T07:21:30;5.60;71.10
25616;DHT22;13482;48.234;13.006;2023-02-02T07:24:03;5.60;71.10
25616;DHT22;13482;48.234;13.006;2023-02-02T07:26:33;5.50;71.10
25616;DHT22;13482;48.234;13.006;2023-02-02T07:29:01;5.50;71.00
25616;DHT22;13482;48.234;13.006;2023-02-02T07:31:30;5.50;71.00
25616;DHT22;13482;48.234;13.006;2023-02-02T07:34:01;5.50;71.10
25616;DHT22;13482;48.234;13.006;2023-02-02T07:36:28;5.50;71.10
25616;DHT22;13482;48.234;13.006;2023-02-02T07:38:55;5.50;71.20
25616;DHT22;13482;48.234;13.006;2023-02-02T07:41:28;5.50;71.20
25616;DHT22;13482;48.234;13.006;2023-02-02T07:43:55;5.40;71.20
25616;DHT22;13482;48.234;13.006;2023-02-02T07:46:22;5.40;71.10
25616;DHT22;13482;48.234;13.006;2023-02-02T07:48:52;5.40;71.20
25616;DHT22;13482;48.234;13.006;2023-02-02T07:51:22;5.40;71.10
25616;DHT22;13482;48.234;13.006;2023-02-02T07:53:51;5.40;71.20
25616;DHT22;13482;48.234;13.006;2023-02-02T07:56:22;5.40;71.20
25616;DHT22;13482;48.234;13.006;2023-02-02T07:58:52;5.40;71.20
25616;DHT22;13482;48.234;13.006;2023-02-02T08:01:21;5.30;71.20
25616;DHT22;13482;48.234;13.006;2023-02-02T08:03:49;5.30;71.20
25616;DHT22;13482;48.234;13.006;2023-02-02T08:06:19;5.30;71.20
25616;DHT22;13482;48.234;13.006;2023-02-02T08:08:51;5.30;71.20
25616;DHT22;13482;48.234;13.006;2023-02-02T08:11:19;5.20;71.20
25616;DHT22;13482;48.234;13.006;2023-02-02T08:13:48;5.20;71.20
25616;DHT22;13482;48.234;13.006;2023-02-02T08:16:21;5.20;71.20
25616;DHT22;13482;48.234;13.006;2023-02-02T08:18:49;5.20;71.30
25616;DHT22;13482;48.234;13.006;2023-02-02T08:21:16;5.20;71.30
25616;DHT22;13482;48.234;13.006;2023-02-02T08:23:44;5.10;71.40
25616;DHT22;13482;48.234;13.006;2023-02-02T08:26:14;5.10;71.40
25616;DHT22;13482;48.234;13.006;2023-02-02T08:28:44;5.20;71.40
25616;DHT22;13482;48.234;13.006;2023-02-02T08:31:20;5.20;72.10
25616;DHT22;13482;48.234;13.006;2023-02-02T08:33:49;5.20;71.20
25616;DHT22;13482;48.234;13.006;2023-02-02T08:36:18;5.10;71.20
25616;DHT22;13482;48.234;13.006;2023-02-02T08:38:47;5.10;71.30
25616;DHT22;13482;48.234;13.006;2023-02-02T08:41:17;5.10;71.40
25616;DHT22;13482;48.234;13.006;2023-02-02T08:43:46;5.10;71.50
25616;DHT22;13482;48.234;13.006;2023-02-02T08:46:15;5.10;71.50
25616;DHT22;13482;48.234;13.006;2023-02-02T08:48:43;5.10;71.50
25616;DHT22;13482;48.234;13.006;2023-02-02T08:51:12;5.10;71.60
25616;DHT22;13482;48.234;13.006;2023-02-02T08:53:41;5.10;71.60
25616;DHT22;13482;48.234;13.006;2023-02-02T08:56:19;5.10;71.60
25616;DHT22;13482;48.234;13.006;2023-02-02T08:58:51;5.20;71.70
25616;DHT22;13482;48.234;13.006;2023-02-02T09:01:26;5.10;71.60
25616;DHT22;13482;48.234;13.006;2023-02-02T09:03:56;5.10;71.50
25616;DHT22;13482;48.234;13.006;2023-02-02T09:06:31;5.10;71.60
25616;DHT22;13482;48.234;13.006;2023-02-02T09:08:59;5.10;71.60
25616;DHT22;13482;48.234;13.006;2023-02-02T09:11:28;5.10;71.60
25616;DHT22;13482;48.234;13.006;2023-02-02T09:13:56;5.10;71.60
25616;DHT22;13482;48.234;13.006;2023-02-02T09:16:26;5.10;71.60
25616;DHT22;13482;48.234;13.006;2023-02-02T09:18:54;5.10;71.70
25616;DHT22;13482;48.234;13.006;2023-02-02T09:21:22;5.10;71.70
25616;DHT22;13482;48.234;13.006;2023-02-02T09:23:50;5.10;71.90
25616;DHT22;13482;48.234;13.006;2023-02-02T09:26:27;5.10;71.80
25616;DHT22;13482;48.234;13.006;2023-02-02T09:29:00;5.10;71.90
25616;DHT22;13482;48.234;13.006;2023-02-02T09:31:32;5.20;71.90
25616;DHT22;13482;48.234;13.006;2023-02-02T09:34:18;5.20;71.80
25616;DHT22;13482;48.234;13.006;2023-02-02T09:36:45;5.20;72.10
25616;DHT22;13482;48.234;13.006;2023-02-02T09:39:13;5.20;71.70
25616;DHT22;13482;48.234;13.006;2023-02-02T09:47:30;5.20;71.70
25616;DHT22;13482;48.234;13.006;2023-02-02T09:55:45;5.20;71.70
25616;DHT22;13482;48.234;13.006;2023-02-02T09:58:35;5.20;72.10
25616;DHT22;13482;48.234;13.006;2023-02-02T10:01:11;5.20;71.90
25616;DHT22;13482;48.234;13.006;2023-02-02T10:03:56;5.10;71.80
25616;DHT22;13482;48.234;13.006;2023-02-02T10:06:50;5.10;71.80
25616;DHT22;13482;48.234;13.006;2023-02-02T10:12:33;5.10;72.20
25616;DHT22;13482;48.234;13.006;2023-02-02T10:18:19;5.10;72.20
25616;DHT22;13482;48.234;13.006;2023-02-02T10:21:03;5.00;72.00
25616;DHT22;13482;48.234;13.006;2023-02-02T10:23:51;5.00;72.00
25616;DHT22;13482;48.234;13.006;2023-02-02T10:40:57;5.00;72.40
25616;DHT22;13482;48.234;13.006;2023-02-02T10:43:52;5.10;72.20
25616;DHT22;13482;48.234;13.006;2023-02-02T10:46:53;5.10;72.30
25616;DHT22;13482;48.234;13.006;2023-02-02T10:49:30;5.10;72.20
25616;DHT22;13482;48.234;13.006;2023-02-02T10:54:56;5.10;72.20
25616;DHT22;13482;48.234;13.006;2023-02-02T10:57:41;5.10;72.20
25616;DHT22;13482;48.234;13.006;2023-02-02T11:00:48;5.10;72.20
25616;DHT22;13482;48.234;13.006;2023-02-02T11:03:21;5.10;72.30
25616;DHT22;13482;48.234;13.006;2023-02-02T11:05:49;5.10;72.10
25616;DHT22;13482;48.234;13.006;2023-02-02T11:08:45;5.10;72.20
25616;DHT22;13482;48.234;13.006;2023-02-02T11:11:30;5.10;72.20
25616;DHT22;13482;48.234;13.006;2023-02-02T11:16:41;5.10;72.30
25616;DHT22;13482;48.234;13.006;2023-02-02T11:21:49;5.10;72.30
25616;DHT22;13482;48.234;13.006;2023-02-02T11:24:23;5.10;72.40
25616;DHT22;13482;48.234;13.006;2023-02-02T11:37:35;5.20;72.30
25616;DHT22;13482;48.234;13.006;2023-02-02T11:42:56;5.20;72.40
25616;DHT22;13482;48.234;13.006;2023-02-02T11:50:51;5.30;72.40
25616;DHT22;13482;48.234;13.006;2023-02-02T11:55:58;5.30;72.00
25616;DHT22;13482;48.234;13.006;2023-02-02T11:58:31;5.30;72.10
25616;DHT22;13482;48.234;13.006;2023-02-02T12:01:15;5.30;72.10
25616;DHT22;13482;48.234;13.006;2023-02-02T12:03:48;5.30;72.90
25616;DHT22;13482;48.234;13.006;2023-02-02T12:06:21;5.30;71.90
25616;DHT22;13482;48.234;13.006;2023-02-02T12:08:48;5.30;72.00
25616;DHT22;13482;48.234;13.006;2023-02-02T12:17:38;5.20;72.50
25616;DHT22;13482;48.234;13.006;2023-02-02T12:20:36;5.30;72.20
25616;DHT22;13482;48.234;13.006;2023-02-02T12:23:28;5.30;72.60
25616;DHT22;13482;48.234;13.006;2023-02-02T12:26:48;5.30;72.30
25616;DHT22;13482;48.234;13.006;2023-02-02T12:40:28;5.40;72.70
25616;DHT22;13482;48.234;13.006;2023-02-02T12:43:38;5.40;72.10
25616;DHT22;13482;48.234;13.006;2023-02-02T12:55:40;5.50;72.20
25616;DHT22;13482;48.234;13.006;2023-02-02T13:01:08;5.60;72.30
25616;DHT22;13482;48.234;13.006;2023-02-02T13:07:07;5.60;72.40
25616;DHT22;13482;48.234;13.006;2023-02-02T13:13:03;5.60;71.90
25616;DHT22;13482;48.234;13.006;2023-02-02T13:15:43;5.60;71.80
25616;DHT22;13482;48.234;13.006;2023-02-02T13:18:29;5.60;71.80
25616;DHT22;13482;48.234;13.006;2023-02-02T13:23:32;5.60;71.70
25616;DHT22;13482;48.234;13.006;2023-02-02T13:26:25;5.60;71.70
25616;DHT22;13482;48.234;13.006;2023-02-02T13:32:00;5.60;72.20
25616;DHT22;13482;48.234;13.006;2023-02-02T13:34:45;5.60;71.70
25616;DHT22;13482;48.234;13.006;2023-02-02T13:37:49;5.60;71.80
25616;DHT22;13482;48.234;13.006;2023-02-02T14:00:51;5.70;76.70
25616;DHT22;13482;48.234;13.006;2023-02-02T14:06:20;6.00;77.00
25616;DHT22;13482;48.234;13.006;2023-02-02T14:09:03;6.10;77.60
25616;DHT22;13482;48.234;13.006;2023-02-02T14:11:37;6.20;77.50
25616;DHT22;13482;48.234;13.006;2023-02-02T14:14:15;6.30;77.30
25616;DHT22;13482;48.234;13.006;2023-02-02T14:17:02;6.40;77.20
25616;DHT22;13482;48.234;13.006;2023-02-02T14:34:59;6.90;76.50
25616;DHT22;13482;48.234;13.006;2023-02-02T14:38:03;6.90;76.50
25616;DHT22;13482;48.234;13.006;2023-02-02T14:41:01;6.90;76.60
25616;DHT22;13482;48.234;13.006;2023-02-02T14:43:47;7.00;76.40
25616;DHT22;13482;48.234;13.006;2023-02-02T14:46:46;7.00;76.90
25616;DHT22;13482;48.234;13.006;2023-02-02T14:49:20;7.00;76.80
25616;DHT22;13482;48.234;13.006;2023-02-02T14:51:53;7.00;76.90
25616;DHT22;13482;48.234;13.006;2023-02-02T14:54:23;7.00;76.80
25616;DHT22;13482;48.234;13.006;2023-02-02T14:56:56;7.00;78.40
25616;DHT22;13482;48.234;13.006;2023-02-02T14:59:35;7.10;76.70
25616;DHT22;13482;48.234;13.006;2023-02-02T15:08:19;7.10;77.10
25616;DHT22;13482;48.234;13.006;2023-02-02T15:13:32;7.10;76.50
25616;DHT22;13482;48.234;13.006;2023-02-02T15:16:18;7.10;77.30
25616;DHT22;13482;48.234;13.006;2023-02-02T15:18:57;7.10;77.20
25616;DHT22;13482;48.234;13.006;2023-02-02T15:21:31;7.10;77.20
25616;DHT22;13482;48.234;13.006;2023-02-02T15:24:00;7.10;77.10
25616;DHT22;13482;48.234;13.006;2023-02-02T15:26:33;7.10;77.20
25616;DHT22;13482;48.234;13.006;2023-02-02T15:29:41;7.10;77.40
25616;DHT22;13482;48.234;13.006;2023-02-02T15:32:15;7.10;78.10
25616;DHT22;13482;48.234;13.006;2023-02-02T15:35:06;7.10;77.50
25616;DHT22;13482;48.234;13.006;2023-02-02T15:37:47;7.10;77.20
25616;DHT22;13482;48.234;13.006;2023-02-02T15:40:23;7.10;77.40
25616;DHT22;13482;48.234;13.006;2023-02-02T15:43:02;7.10;77.30
25616;DHT22;13482;48.234;13.006;2023-02-02T15:45:43;7.10;77.50
25616;DHT22;13482;48.234;13.006;2023-02-02T15:48:25;7.10;77.20
25616;DHT22;13482;48.234;13.006;2023-02-02T15:50:59;7.10;77.10
25616;DHT22;13482;48.234;13.006;2023-02-02T15:53:48;7.10;77.20
25616;DHT22;13482;48.234;13.006;2023-02-02T15:56:26;7.10;77.80
25616;DHT22;13482;48.234;13.006;2023-02-02T15:58:58;7.10;77.40
25616;DHT22;13482;48.234;13.006;2023-02-02T16:01:30;7.10;77.40
25616;DHT22;13482;48.234;13.006;2023-02-02T16:04:15;7.20;77.40
25616;DHT22;13482;48.234;13.006;2023-02-02T16:06:46;7.20;77.60
25616;DHT22;13482;48.234;13.006;2023-02-02T16:09:22;7.20;77.40
25616;DHT22;13482;48.234;13.006;2023-02-02T16:11:51;7.20;77.30
25616;DHT22;13482;48.234;13.006;2023-02-02T16:14:19;7.20;77.40
25616;DHT22;13482;48.234;13.006;2023-02-02T16:16:47;7.20;77.60
25616;DHT22;13482;48.234;13.006;2023-02-02T16:19:19;7.20;77.80
25616;DHT22;13482;48.234;13.006;2023-02-02T16:21:57;7.30;77.90
25616;DHT22;13482;48.234;13.006;2023-02-02T16:24:27;7.30;77.80
25616;DHT22;13482;48.234;13.006;2023-02-02T16:26:58;7.30;77.90
25616;DHT22;13482;48.234;13.006;2023-02-02T16:29:27;7.30;78.00
25616;DHT22;13482;48.234;13.006;2023-02-02T16:31:56;7.30;77.40
25616;DHT22;13482;48.234;13.006;2023-02-02T16:37:13;7.40;75.90
25616;DHT22;13482;48.234;13.006;2023-02-02T16:39:48;7.30;75.20
25616;DHT22;13482;48.234;13.006;2023-02-02T16:42:29;7.30;74.70
25616;DHT22;13482;48.234;13.006;2023-02-02T16:44:59;7.20;74.30
25616;DHT22;13482;48.234;13.006;2023-02-02T16:50:25;7.00;73.80
25616;DHT22;13482;48.234;13.006;2023-02-02T16:53:03;6.90;73.80
25616;DHT22;13482;48.234;13.006;2023-02-02T16:55:32;6.80;73.60
25616;DHT22;13482;48.234;13.006;2023-02-02T16:58:18;6.70;73.60
25616;DHT22;13482;48.234;13.006;2023-02-02T17:01:02;6.60;73.60
25616;DHT22;13482;48.234;13.006;2023-02-02T17:03:49;6.50;73.90
25616;DHT22;13482;48.234;13.006;2023-02-02T17:06:26;6.50;73.90
25616;DHT22;13482;48.234;13.006;2023-02-02T17:14:57;6.30;74.20
25616;DHT22;13482;48.234;13.006;2023-02-02T17:17:27;6.20;74.20
25616;DHT22;13482;48.234;13.006;2023-02-02T17:19:54;6.20;74.10
25616;DHT22;13482;48.234;13.006;2023-02-02T17:22:23;6.10;74.30
25616;DHT22;13482;48.234;13.006;2023-02-02T17:24:51;6.10;74.30
25616;DHT22;13482;48.234;13.006;2023-02-02T17:27:30;6.10;74.50
25616;DHT22;13482;48.234;13.006;2023-02-02T17:30:00;6.10;74.50
25616;DHT22;13482;48.234;13.006;2023-02-02T17:32:27;6.00;74.40
25616;DHT22;13482;48.234;13.006;2023-02-02T17:34:55;6.00;74.40
25616;DHT22;13482;48.234;13.006;2023-02-02T17:37:23;6.00;74.50
25616;DHT22;13482;48.234;13.006;2023-02-02T17:39:50;6.00;74.40
25616;DHT22;13482;48.234;13.006;2023-02-02T17:42:26;6.00;74.50
25616;DHT22;13482;48.234;13.006;2023-02-02T17:44:53;6.00;74.40
25616;DHT22;13482;48.234;13.006;2023-02-02T17:47:20;6.00;74.40
25616;DHT22;13482;48.234;13.006;2023-02-02T17:49:47;6.00;74.40
25616;DHT22;13482;48.234;13.006;2023-02-02T17:52:14;6.00;74.30
25616;DHT22;13482;48.234;13.006;2023-02-02T17:54:42;6.00;74.30
25616;DHT22;13482;48.234;13.006;2023-02-02T17:57:09;6.00;74.30
25616;DHT22;13482;48.234;13.006;2023-02-02T17:59:36;6.00;74.30
25616;DHT22;13482;48.234;13.006;2023-02-02T18:02:03;6.00;74.20
25616;DHT22;13482;48.234;13.006;2023-02-02T18:04:30;6.00;74.20
25616;DHT22;13482;48.234;13.006;2023-02-02T18:06:57;6.00;74.20
25616;DHT22;13482;48.234;13.006;2023-02-02T18:09:24;6.00;74.20
25616;DHT22;13482;48.234;13.006;2023-02-02T18:11:52;6.00;74.20
25616;DHT22;13482;48.234;13.006;2023-02-02T18:14:19;6.00;74.00
25616;DHT22;13482;48.234;13.006;2023-02-02T18:16:46;6.00;74.00
25616;DHT22;13482;48.234;13.006;2023-02-02T18:19:13;6.00;73.90
25616;DHT22;13482;48.234;13.006;2023-02-02T18:21:40;5.90;73.90
25616;DHT22;13482;48.234;13.006;2023-02-02T18:24:07;5.90;74.00
25616;DHT22;13482;48.234;13.006;2023-02-02T18:26:40;5.90;74.10
25616;DHT22;13482;48.234;13.006;2023-02-02T18:29:07;5.90;74.00
25616;DHT22;13482;48.234;13.006;2023-02-02T18:31:34;5.80;74.00
25616;DHT22;13482;48.234;13.006;2023-02-02T18:34:02;5.80;74.00
25616;DHT22;13482;48.234;13.006;2023-02-02T18:36:29;5.80;74.00
25616;DHT22;13482;48.234;13.006;2023-02-02T18:38:56;5.80;74.10
25616;DHT22;13482;48.234;13.006;2023-02-02T18:41:23;5.80;74.00
25616;DHT22;13482;48.234;13.006;2023-02-02T18:43:53;5.70;74.00
25616;DHT22;13482;48.234;13.006;2023-02-02T18:46:20;5.80;74.00
25616;DHT22;13482;48.234;13.006;2023-02-02T18:48:47;5.70;74.00
25616;DHT22;13482;48.234;13.006;2023-02-02T18:51:16;5.70;74.00
25616;DHT22;13482;48.234;13.006;2023-02-02T18:53:45;5.70;73.90
25616;DHT22;13482;48.234;13.006;2023-02-02T18:56:13;5.70;73.90
25616;DHT22;13482;48.234;13.006;2023-02-02T18:58:40;5.70;73.90
25616;DHT22;13482;48.234;13.006;2023-02-02T19:01:11;5.60;74.00
25616;DHT22;13482;48.234;13.006;2023-02-02T19:03:41;5.60;74.00
25616;DHT22;13482;48.234;13.006;2023-02-02T19:06:08;5.60;73.90
25616;DHT22;13482;48.234;13.006;2023-02-02T19:08:54;5.50;73.90
25616;DHT22;13482;48.234;13.006;2023-02-02T19:11:23;5.50;73.90
25616;DHT22;13482;48.234;13.006;2023-02-02T19:13:52;5.50;73.90
25616;DHT22;13482;48.234;13.006;2023-02-02T19:19:03;5.50;73.90